createdAt,value
2022-08-16T00:00:03.842Z,0.03
2022-08-16T00:05:02.489Z,0.202
2022-08-16T00:10:07.340Z,1.254
2022-08-16T00:15:02.541Z,1.426
2022-08-16T00:20:02.615Z,1.464
2022-08-16T00:25:02.431Z,1.336
2022-08-16T00:30:09.174Z,1.326
2022-08-16T00:35:02.624Z,1.451
2022-08-16T00:40:02.697Z,1.327
2022-08-16T00:45:06.311Z,1.224
2022-08-16T00:50:11.386Z,1.23
2022-08-16T00:55:02.647Z,1.465
2022-08-16T01:00:02.472Z,1.327
2022-08-16T01:05:09.780Z,1.302
2022-08-16T01:10:02.714Z,1.352
2022-08-16T01:15:02.483Z,1.454
2022-08-16T01:20:23.505Z,1.23
2022-08-16T01:25:02.597Z,1.163
2022-08-16T01:30:02.806Z,1.33
2022-08-16T01:35:02.509Z,1.337
2022-08-16T01:40:02.506Z,1.234
2022-08-16T01:45:02.736Z,1.23
2022-08-16T01:50:41.698Z,1.459
2022-08-16T01:55:02.506Z,1.197
2022-08-16T02:00:00.797Z,1.191
2022-08-16T02:05:00.913Z,1.246
2022-08-16T02:10:02.075Z,1.318
2022-08-16T02:15:00.981Z,1.1400000000000001
2022-08-16T02:20:08.799Z,1.203
2022-08-16T02:25:00.826Z,1.3840000000000001
2022-08-16T02:30:05.412Z,1.226
2022-08-16T02:35:00.996Z,1.133
2022-08-16T02:40:00.843Z,0.743
2022-08-16T02:45:00.818Z,0.406
2022-08-16T02:50:53.227Z,0
2022-08-16T02:55:00.788Z,0
2022-08-16T03:00:01.297Z,0
2022-08-16T03:05:00.832Z,0
2022-08-16T03:10:01.018Z,0.056
2022-08-16T03:15:00.822Z,0.328
2022-08-16T03:20:02.618Z,0.006
2022-08-16T03:25:01.496Z,0.167
2022-08-16T03:30:00.843Z,0.166
2022-08-16T03:35:00.871Z,0.07200000000000001
2022-08-16T03:40:02.600Z,0.068
2022-08-16T03:45:03.648Z,0.133
2022-08-16T03:50:25.459Z,0.129
2022-08-16T03:55:00.996Z,0.007
2022-08-16T04:00:00.915Z,0.14100000000000001
2022-08-16T04:05:01.900Z,0.177
2022-08-16T04:10:11.406Z,0.105
2022-08-16T04:15:00.905Z,0.048
2022-08-16T04:20:06.564Z,0.114
2022-08-16T04:25:00.949Z,0.114
2022-08-16T04:30:02.642Z,0.009000000000000001
2022-08-16T04:35:04.857Z,7.413
2022-08-16T04:40:00.967Z,34.724000000000004
2022-08-16T04:45:01.899Z,45.511
2022-08-16T04:50:01.333Z,78.004
2022-08-16T04:55:00.912Z,112.852
2022-08-16T05:00:31.434Z,152.933
2022-08-16T05:05:00.899Z,180.149
2022-08-16T05:10:00.945Z,201.615
2022-08-16T05:15:01.635Z,271.149
2022-08-16T05:20:35.479Z,358.659
2022-08-16T05:25:01.059Z,402.625
2022-08-16T05:30:03.825Z,406.496
2022-08-16T05:35:01.089Z,478.517
2022-08-16T05:40:01.048Z,513.359
2022-08-16T05:45:01.309Z,502.906
2022-08-16T05:50:06.296Z,535.436
2022-08-16T05:55:01.799Z,606.577
2022-08-16T06:00:02.611Z,725.187
2022-08-16T06:05:01.015Z,885.807
2022-08-16T06:10:01.260Z,1018.1510000000001
2022-08-16T06:15:00.966Z,1254.449
2022-08-16T06:20:00.990Z,1839.229
2022-08-16T06:25:01.086Z,2014.1770000000001
2022-08-16T06:30:01.092Z,2374.7580000000003
2022-08-16T06:35:02.211Z,2481.552
2022-08-16T06:40:01.054Z,2815.471
2022-08-16T06:45:01.160Z,2317.911
2022-08-16T06:50:06.393Z,2369.302
2022-08-16T06:55:01.085Z,2292.545
2022-08-16T07:00:02.097Z,2919.561
2022-08-16T07:05:01.088Z,2439.286
2022-08-16T07:10:01.045Z,2668.647
2022-08-16T07:15:01.051Z,2871.9990000000003
2022-08-16T07:20:29.428Z,2978.551
2022-08-16T07:25:01.153Z,3289.683
2022-08-16T07:30:01.441Z,3496.724
2022-08-16T07:35:01.138Z,3724.516
2022-08-16T07:40:01.118Z,3237.916
2022-08-16T07:45:01.055Z,2543.507
2022-08-16T07:50:05.072Z,4022.803
2022-08-16T07:55:06.362Z,4115.49
2022-08-16T08:00:01.082Z,4201.387
2022-08-16T08:05:03.384Z,4118.0470000000005
2022-08-16T08:10:01.232Z,4423.344
2022-08-16T08:15:01.353Z,4635.107
2022-08-16T08:20:06.975Z,4757.7300000000005
2022-08-16T08:25:03.496Z,4870.8060000000005
2022-08-16T08:30:44.045Z,5033.77
2022-08-16T08:35:03.508Z,5207.779
2022-08-16T08:40:01.237Z,5378.497
2022-08-16T08:45:01.182Z,5554.633
2022-08-16T08:50:11.103Z,5745.01
2022-08-16T08:55:01.140Z,5698.965
2022-08-16T09:00:01.125Z,4491.352
2022-08-16T09:05:01.287Z,5696.8150000000005
2022-08-16T09:10:06.475Z,6234.524
2022-08-16T09:15:01.161Z,6100.63
2022-08-16T09:20:04.739Z,6073.242
2022-08-16T09:25:09.971Z,6163.871
2022-08-16T09:30:02.572Z,6280.6810000000005
2022-08-16T09:35:01.160Z,6306.473
2022-08-16T09:40:01.364Z,6305.302
2022-08-16T09:45:09.951Z,6370.189
2022-08-16T09:50:11.904Z,6448.621
2022-08-16T09:55:01.314Z,6564.89
2022-08-16T10:00:01.374Z,6597.187
2022-08-16T10:05:01.260Z,6351.386
2022-08-16T10:10:01.181Z,6815.036
2022-08-16T10:15:01.445Z,6905.707
2022-08-16T10:20:10.836Z,7068.7210000000005
2022-08-16T10:25:01.196Z,6517.628
2022-08-16T10:30:06.687Z,4360.791
2022-08-16T10:35:01.980Z,5930.548
2022-08-16T10:40:01.286Z,7428.231
2022-08-16T10:45:01.316Z,6986.2660000000005
2022-08-16T10:50:01.502Z,6399.474
2022-08-16T11:00:01.460Z,6164.978
2022-08-16T11:05:05.808Z,6923.129
2022-08-16T11:10:20.352Z,6835.454
2022-08-16T11:15:17.031Z,6955.925
2022-08-16T11:25:59.579Z,6220.3910000000005
2022-08-16T11:30:01.287Z,5497.222
2022-08-16T11:35:10.095Z,6449.863
2022-08-16T11:40:01.355Z,6526.484
2022-08-16T11:45:01.295Z,5193.438
2022-08-16T11:50:11.651Z,6910.0740000000005
2022-08-16T11:55:01.318Z,6933.31
2022-08-16T12:00:01.277Z,5790.856
2022-08-16T12:05:01.454Z,7255.693
2022-08-16T12:25:01.378Z,3489.672
2022-08-16T12:30:01.343Z,6800.256
2022-08-16T12:35:01.484Z,7138.393
2022-08-16T12:40:01.499Z,6301.153
2022-08-16T12:45:01.337Z,5845.558
2022-08-16T12:50:10.579Z,6175.666
2022-08-16T12:55:01.357Z,6220.644
2022-08-16T13:00:01.377Z,6869.118
2022-08-16T13:05:01.492Z,6841.112
2022-08-16T13:10:07.468Z,6823.026
2022-08-16T13:15:01.363Z,6703.709
2022-08-16T13:20:12.185Z,6663.472
2022-08-16T13:25:01.393Z,6648.9490000000005
2022-08-16T13:30:01.424Z,6618.145
2022-08-16T13:35:01.391Z,6523.733
2022-08-16T13:40:01.420Z,5945.816
2022-08-16T13:45:01.576Z,5291.702
2022-08-16T13:50:01.848Z,3412.944
2022-08-16T13:55:01.383Z,2160.614
2022-08-16T14:00:01.556Z,6129.7
2022-08-16T14:05:01.937Z,6328.729
2022-08-16T14:10:01.427Z,5912.137
2022-08-16T14:15:01.505Z,5569.314
2022-08-16T14:20:07.753Z,5583.292
2022-08-16T14:25:01.438Z,5009.691
2022-08-16T14:30:01.994Z,5634.144
2022-08-16T14:35:01.420Z,5070.872
2022-08-16T14:40:01.433Z,4994.027
2022-08-16T14:45:01.579Z,4926.253
2022-08-16T14:50:12.918Z,4876.8550000000005
2022-08-16T14:55:01.444Z,4744.9130000000005
2022-08-16T15:00:05.881Z,4589.171
2022-08-16T15:05:01.522Z,4442.487
2022-08-16T15:10:02.266Z,4370.84
2022-08-16T15:15:01.628Z,4258.012
2022-08-16T15:20:01.840Z,4154.419
2022-08-16T15:25:01.457Z,4004.759
2022-08-16T15:30:01.728Z,3912.312
2022-08-16T15:35:03.286Z,3709.233
2022-08-16T15:40:06.459Z,3635.4210000000003
2022-08-16T15:45:01.652Z,3478.837
2022-08-16T15:50:08.084Z,3344.866
2022-08-16T15:55:07.598Z,3188.3920000000003
2022-08-16T16:00:05.062Z,3050.112
2022-08-16T16:05:02.091Z,2899.813
2022-08-16T16:10:01.512Z,2745.37
2022-08-16T16:15:01.665Z,2622.217
2022-08-16T16:20:04.509Z,2392.309
2022-08-16T16:25:01.472Z,2229.56
2022-08-16T16:30:02.159Z,2039.578
2022-08-16T16:35:01.549Z,1924.3110000000001
2022-08-16T16:40:01.822Z,1842.991
2022-08-16T16:45:02.059Z,1725.122
2022-08-16T16:50:01.915Z,1391.67
2022-08-16T16:55:01.553Z,529.8770000000001
2022-08-16T17:00:25.870Z,450.5
2022-08-16T17:05:01.531Z,415.124
2022-08-16T17:10:01.840Z,461.56100000000004
2022-08-16T17:15:01.671Z,538.8100000000001
2022-08-16T17:20:01.616Z,568.489
2022-08-16T17:25:01.639Z,505.564
2022-08-16T17:30:01.708Z,520.317
2022-08-16T17:35:03.935Z,412.026
2022-08-16T17:40:04.022Z,317.15500000000003
2022-08-16T17:45:06.658Z,276.311
2022-08-16T17:50:08.122Z,216.141
2022-08-16T17:55:01.632Z,163.226
2022-08-16T18:00:01.629Z,139.626
2022-08-16T18:05:01.758Z,108.928
2022-08-16T18:10:01.603Z,71.617
2022-08-16T18:15:01.603Z,44.441
2022-08-16T18:20:01.829Z,28.268
2022-08-16T18:25:01.598Z,32.83
2022-08-16T18:30:01.624Z,11.727
2022-08-16T18:35:01.745Z,0.008
2022-08-16T18:40:01.648Z,0
2022-08-16T18:45:01.662Z,0.083
2022-08-16T18:50:07.315Z,0.10400000000000001
2022-08-16T18:55:03.222Z,0
2022-08-16T19:00:01.743Z,0.101
2022-08-16T19:05:01.828Z,0.08
2022-08-16T19:10:01.647Z,0.012
2022-08-16T19:15:01.680Z,0.054
2022-08-16T19:20:10.670Z,0.088
2022-08-16T19:25:01.659Z,0.074
2022-08-16T19:30:01.707Z,0.001
2022-08-16T19:35:01.758Z,0
2022-08-16T19:40:01.728Z,0.10400000000000001
2022-08-16T19:45:01.749Z,0.009000000000000001
2022-08-16T19:50:01.880Z,0.059000000000000004
2022-08-16T19:55:01.840Z,0.094
2022-08-16T20:00:01.817Z,0.10400000000000001
2022-08-16T20:05:01.810Z,0.137
2022-08-16T20:10:01.908Z,0.171
2022-08-16T20:15:01.779Z,0.176
2022-08-16T20:20:08.117Z,0.128
2022-08-16T20:25:01.935Z,0.122
2022-08-16T20:30:04.857Z,0.121
2022-08-16T20:35:01.769Z,0.126
2022-08-16T20:40:05.733Z,0.132
2022-08-16T20:45:01.747Z,0.177
2022-08-16T20:50:03.685Z,0.18
2022-08-16T20:55:01.897Z,0.17500000000000002
2022-08-16T21:00:01.985Z,0.138
2022-08-16T21:05:01.791Z,0.137
2022-08-16T21:10:02.043Z,0.14200000000000002
2022-08-16T21:15:01.914Z,0.124
2022-08-16T21:20:02.116Z,1.853
2022-08-16T21:25:01.790Z,0.906
2022-08-16T21:30:02.015Z,0
2022-08-16T21:35:01.819Z,0
2022-08-16T21:40:01.973Z,0.066
2022-08-16T21:45:01.958Z,0.123
2022-08-16T21:50:01.793Z,0.126
2022-08-16T21:55:01.804Z,0.128
2022-08-16T22:00:02.003Z,0.149
2022-08-16T22:05:01.825Z,0.176
2022-08-16T22:10:05.945Z,0.41500000000000004
2022-08-16T22:15:02.292Z,0.165
2022-08-16T22:20:07.581Z,0.178
2022-08-16T22:25:01.819Z,0.151
2022-08-16T22:30:01.987Z,0.246
2022-08-16T22:35:10.652Z,0.138
2022-08-16T22:40:01.920Z,0.168
2022-08-16T22:45:01.869Z,0.192
2022-08-16T22:50:02.037Z,0.294
2022-08-16T22:55:01.924Z,0.28600000000000003
2022-08-16T23:00:02.312Z,0.08600000000000001
2022-08-16T23:05:02.338Z,0.09
2022-08-16T23:10:01.845Z,0.094
2022-08-16T23:15:01.926Z,0.095
2022-08-16T23:20:07.965Z,0.109
2022-08-16T23:25:01.979Z,0.14200000000000002
2022-08-16T23:30:01.906Z,0.14100000000000001
2022-08-16T23:35:01.989Z,0.14100000000000001
2022-08-16T23:40:02.089Z,0.10200000000000001
2022-08-16T23:45:01.916Z,0.11
2022-08-16T23:50:07.771Z,0.113
2022-08-16T23:55:02.067Z,0.122
